createdAt,value
2022-11-14T00:00:40.371Z,32.00
2022-11-14T00:06:06.106Z,31.90
2022-11-14T00:11:26.346Z,32.10
2022-11-14T00:16:47.231Z,32.00
2022-11-14T00:22:07.641Z,32.00
2022-11-14T00:32:48.867Z,30.90
2022-11-14T00:38:09.295Z,31.00
2022-11-14T00:48:50.417Z,31.00
2022-11-14T00:54:11.237Z,31.00
2022-11-14T01:04:51.860Z,31.00
2022-11-14T01:10:12.300Z,31.00
2022-11-14T01:20:53.890Z,31.00
2022-11-14T01:26:14.502Z,31.10
2022-11-14T01:31:34.932Z,31.00
2022-11-14T01:36:55.395Z,31.00
2022-11-14T01:42:17.480Z,31.00
2022-11-14T01:47:38.348Z,31.00
2022-11-14T01:52:58.753Z,31.00
2022-11-14T01:58:20.543Z,31.00
2022-11-14T02:03:44.199Z,31.00
2022-11-14T02:09:05.873Z,30.90
2022-11-14T02:14:28.026Z,30.90
2022-11-14T02:20:04.760Z,31.00
2022-11-14T02:25:26.292Z,30.90
2022-11-14T02:30:46.909Z,31.00
2022-11-14T02:36:07.749Z,31.00
2022-11-14T02:46:48.756Z,31.00
2022-11-14T02:57:29.899Z,31.40
2022-11-14T03:02:52.366Z,30.90
2022-11-14T03:08:12.839Z,30.80
2022-11-14T03:13:33.593Z,30.90
2022-11-14T03:18:54.519Z,30.70
2022-11-14T03:29:36.395Z,30.70
2022-11-14T03:40:17.477Z,30.70
2022-11-14T03:50:58.848Z,30.80
2022-11-14T03:56:19.178Z,30.70
2022-11-14T04:01:39.587Z,30.80
2022-11-14T04:07:00.590Z,30.90
2022-11-14T04:12:21.018Z,30.80
2022-11-14T04:17:41.410Z,30.80
2022-11-14T04:23:01.773Z,30.80
2022-11-14T04:28:23.643Z,30.70
2022-11-14T04:33:43.921Z,30.70
2022-11-14T04:39:05.335Z,30.40
2022-11-14T04:49:46.686Z,30.00
2022-11-14T04:55:07.480Z,30.00
2022-11-14T05:05:48.700Z,29.90
2022-11-14T05:11:17.913Z,29.80
2022-11-14T05:21:58.907Z,29.70
2022-11-14T05:27:19.401Z,29.90
2022-11-14T05:32:39.825Z,29.70
2022-11-14T05:38:02.209Z,29.70
2022-11-14T05:43:22.746Z,29.80
2022-11-14T05:48:43.583Z,29.70
2022-11-14T05:54:04.121Z,29.70
2022-11-14T06:04:45.155Z,30.00
2022-11-14T06:10:05.490Z,30.00
2022-11-14T06:15:25.914Z,31.00
2022-11-14T06:20:45.859Z,31.20
2022-11-14T06:26:12.614Z,31.20
2022-11-14T06:31:33.137Z,31.30
2022-11-14T06:36:53.542Z,30.30
2022-11-14T06:42:16.414Z,30.40
2022-11-14T06:47:36.891Z,30.30
2022-11-14T06:52:58.593Z,30.50
2022-11-14T06:58:18.756Z,31.50
2022-11-14T07:03:39.770Z,31.60
2022-11-14T07:25:02.530Z,31.80
2022-11-14T07:30:22.889Z,31.90
2022-11-14T07:35:43.388Z,31.80
2022-11-14T07:41:10.240Z,31.70
2022-11-14T07:46:30.453Z,31.90
2022-11-14T07:51:50.918Z,32.00
2022-11-14T07:57:11.262Z,30.50
2022-11-14T08:02:31.686Z,30.20
2022-11-14T08:07:53.102Z,30.20
2022-11-14T08:18:53.775Z,30.10
2022-11-14T08:24:14.276Z,30.00
2022-11-14T08:29:34.775Z,29.90
2022-11-14T08:34:55.241Z,29.90
2022-11-14T08:40:16.000Z,30.00
2022-11-14T08:50:57.918Z,29.60
2022-11-14T09:06:59.817Z,29.00
2022-11-14T09:12:20.179Z,29.00
2022-11-14T09:17:40.238Z,29.10
2022-11-14T09:23:02.245Z,29.00
2022-11-14T09:28:24.268Z,29.20
2022-11-14T09:33:44.498Z,29.00
2022-11-14T09:39:05.037Z,28.80
2022-11-14T09:44:38.918Z,28.90
2022-11-14T09:50:15.744Z,28.80
2022-11-14T09:55:37.352Z,28.90
2022-11-14T10:01:09.960Z,28.70
2022-11-14T10:06:36.891Z,28.70
2022-11-14T10:12:10.031Z,28.70
2022-11-14T10:23:06.343Z,28.20
2022-11-14T10:28:41.266Z,28.20
2022-11-14T10:34:31.764Z,27.80
2022-11-14T10:39:55.549Z,27.70
2022-11-14T10:45:54.626Z,27.20
2022-11-14T10:51:26.408Z,27.20
2022-11-14T10:56:47.858Z,27.20
2022-11-14T11:02:08.058Z,27.30
2022-11-14T11:07:46.899Z,27.20
2022-11-14T11:13:13.826Z,27.20
2022-11-14T11:18:36.703Z,27.30
2022-11-14T11:23:57.642Z,27.30
2022-11-14T11:29:20.088Z,27.30
2022-11-14T11:34:40.800Z,26.90
2022-11-14T11:40:13.144Z,26.80
2022-11-14T11:45:34.721Z,26.70
2022-11-14T11:50:55.633Z,26.60
2022-11-14T11:56:25.042Z,26.70
2022-11-14T12:01:45.423Z,26.70
2022-11-14T12:07:16.929Z,26.90
2022-11-14T12:12:42.848Z,26.50
2022-11-14T12:18:36.110Z,26.60
2022-11-14T12:24:17.217Z,26.20
2022-11-14T12:29:56.103Z,26.60
2022-11-14T12:35:21.702Z,26.40
2022-11-14T12:40:53.865Z,26.60
2022-11-14T12:51:35.052Z,26.70
2022-11-14T12:57:01.684Z,26.50
2022-11-14T13:02:27.743Z,26.60
2022-11-14T13:07:59.280Z,27.30
2022-11-14T13:19:29.362Z,27.00
2022-11-14T13:25:01.839Z,25.90
2022-11-14T13:31:00.536Z,26.80
2022-11-14T13:36:35.557Z,27.00
2022-11-14T13:42:13.934Z,26.40
2022-11-14T13:47:58.263Z,25.90
2022-11-14T13:53:28.377Z,25.50
2022-11-14T13:59:09.081Z,24.80
2022-11-14T14:04:58.355Z,24.60
2022-11-14T14:16:07.012Z,24.10
2022-11-14T14:21:36.419Z,24.20
2022-11-14T14:27:05.557Z,24.10
2022-11-14T14:32:25.843Z,24.90
2022-11-14T14:37:54.574Z,24.60
2022-11-14T14:43:28.382Z,24.70
2022-11-14T14:48:48.587Z,24.90
2022-11-14T14:54:20.250Z,24.90
2022-11-14T15:05:03.625Z,25.00
2022-11-14T15:10:26.325Z,25.00
2022-11-14T15:15:46.656Z,25.20
2022-11-14T15:21:23.747Z,25.20
2022-11-14T15:26:46.053Z,25.20
2022-11-14T15:32:06.437Z,25.30
2022-11-14T15:37:28.028Z,25.50
2022-11-14T15:42:48.203Z,26.00
2022-11-14T15:48:17.942Z,26.00
2022-11-14T15:53:39.198Z,25.70
2022-11-14T15:58:59.762Z,26.20
2022-11-14T16:04:28.141Z,25.90
2022-11-14T16:09:48.496Z,26.10
2022-11-14T16:15:09.546Z,26.50
2022-11-14T16:20:35.881Z,26.40
2022-11-14T16:25:56.094Z,26.50
2022-11-14T16:31:17.232Z,26.60
2022-11-14T16:36:37.620Z,26.80
2022-11-14T16:42:05.279Z,26.70
2022-11-14T16:47:25.694Z,26.80
2022-11-14T16:58:06.979Z,26.70
2022-11-14T17:03:27.315Z,26.60
2022-11-14T17:14:08.568Z,27.20
2022-11-14T17:19:30.257Z,27.20
2022-11-14T17:30:12.473Z,27.20
2022-11-14T17:35:35.760Z,27.40
2022-11-14T17:40:58.931Z,27.00
2022-11-14T17:46:19.161Z,27.40
2022-11-14T17:51:39.550Z,27.90
2022-11-14T17:57:00.969Z,27.70
2022-11-14T18:02:21.494Z,27.80
2022-11-14T18:07:42.006Z,27.90
2022-11-14T18:13:04.999Z,27.90
2022-11-14T18:18:25.044Z,28.00
2022-11-14T18:23:54.219Z,28.10
2022-11-14T18:29:15.503Z,28.20
2022-11-14T18:34:38.630Z,28.20
2022-11-14T18:39:59.018Z,28.30
2022-11-14T18:45:19.333Z,28.40
2022-11-14T18:50:39.786Z,28.40
2022-11-14T18:56:04.825Z,29.10
2022-11-14T19:01:29.173Z,28.60
2022-11-14T19:06:49.596Z,29.30
2022-11-14T19:17:42.930Z,29.20
2022-11-14T19:23:03.019Z,29.30
2022-11-14T19:28:27.334Z,29.40
2022-11-14T19:33:47.374Z,29.50
2022-11-14T19:39:08.345Z,29.70
2022-11-14T19:44:28.788Z,30.30
2022-11-14T19:49:50.181Z,29.70
2022-11-14T19:55:10.782Z,29.80
2022-11-14T20:00:31.203Z,29.70
2022-11-14T20:05:51.744Z,29.90
2022-11-14T20:11:12.300Z,29.90
2022-11-14T20:16:36.807Z,29.60
2022-11-14T20:21:57.055Z,29.90
2022-11-14T20:27:17.500Z,29.80
2022-11-14T20:32:37.893Z,30.00
2022-11-14T20:38:03.218Z,30.00
2022-11-14T20:43:25.390Z,30.00
2022-11-14T20:48:46.630Z,30.00
2022-11-14T20:54:08.800Z,30.00
2022-11-14T20:59:28.938Z,30.10
2022-11-14T21:04:49.248Z,30.10
2022-11-14T21:10:28.199Z,30.10
2022-11-14T21:15:48.676Z,30.20
2022-11-14T21:21:17.889Z,31.70
2022-11-14T21:26:39.727Z,31.40
2022-11-14T21:31:59.890Z,32.00
2022-11-14T21:37:20.178Z,31.00
2022-11-14T21:42:41.930Z,31.50
2022-11-14T21:48:02.317Z,31.20
2022-11-14T21:53:22.685Z,31.00
2022-11-14T21:58:43.762Z,31.10
2022-11-14T22:04:13.543Z,31.10
2022-11-14T22:09:34.609Z,31.10
2022-11-14T22:14:54.652Z,31.20
2022-11-14T22:25:35.913Z,31.20
2022-11-14T22:31:20.331Z,31.00
2022-11-14T22:36:40.656Z,31.10
2022-11-14T22:42:01.017Z,31.10
2022-11-14T22:47:21.427Z,31.10
2022-11-14T22:52:41.744Z,31.30
2022-11-14T22:58:02.091Z,31.30
2022-11-14T23:08:43.784Z,31.50
2022-11-14T23:14:04.120Z,31.60
2022-11-14T23:19:24.433Z,31.60
2022-11-14T23:24:44.795Z,31.50
2022-11-14T23:30:05.635Z,31.40
2022-11-14T23:35:25.891Z,31.30
2022-11-14T23:40:57.529Z,31.10
2022-11-14T23:46:17.699Z,31.20
2022-11-14T23:51:38.325Z,31.10
2022-11-14T23:57:02.991Z,31.20
